createdAt,value
2022-12-08T00:01:36.162Z,11.07
2022-12-08T00:04:09.417Z,8.05
2022-12-08T00:07:01.343Z,9.45
2022-12-08T00:09:39.491Z,10.07
2022-12-08T00:12:15.125Z,10.13
2022-12-08T00:14:49.802Z,8.65
2022-12-08T00:17:22.583Z,7.55
2022-12-08T00:19:55.517Z,10.45
2022-12-08T00:22:29.114Z,13.75
2022-12-08T00:25:02.096Z,9.02
2022-12-08T00:27:35.245Z,11.18
2022-12-08T00:30:10.881Z,9.20
2022-12-08T00:32:43.690Z,10.80
2022-12-08T00:35:16.910Z,14.40
2022-12-08T00:37:49.726Z,13.00
2022-12-08T00:40:22.498Z,12.10
2022-12-08T00:42:55.318Z,15.63
2022-12-08T00:45:29.597Z,13.27
2022-12-08T00:48:02.459Z,13.45
2022-12-08T00:50:35.992Z,16.52
2022-12-08T00:53:08.808Z,13.10
2022-12-08T00:55:41.669Z,16.45
2022-12-08T00:58:14.753Z,18.05
2022-12-08T01:00:48.967Z,18.83
2022-12-08T01:03:21.937Z,17.17
2022-12-08T01:05:54.795Z,16.90
2022-12-08T01:08:27.723Z,18.88
2022-12-08T01:11:04.379Z,11.77
2022-12-08T01:13:37.429Z,12.77
2022-12-08T01:16:20.272Z,15.55
2022-12-08T01:18:53.254Z,14.40
2022-12-08T01:21:27.625Z,12.77
2022-12-08T01:24:01.272Z,13.18
2022-12-08T01:26:34.264Z,9.43
2022-12-08T01:31:43.845Z,10.23
2022-12-08T01:34:16.661Z,10.98
2022-12-08T01:36:49.589Z,17.10
2022-12-08T01:39:22.382Z,14.00
2022-12-08T01:41:55.197Z,13.15
2022-12-08T01:44:58.190Z,15.57
2022-12-08T01:47:38.656Z,18.75
2022-12-08T01:50:14.423Z,20.25
2022-12-08T01:52:51.812Z,13.70
2022-12-08T01:55:29.866Z,20.30
2022-12-08T01:58:07.135Z,18.35
2022-12-08T02:00:39.970Z,19.08
2022-12-08T02:03:18.749Z,18.17
2022-12-08T02:05:53.297Z,20.90
2022-12-08T02:08:27.834Z,18.80
2022-12-08T02:13:35.176Z,23.25
2022-12-08T02:16:13.800Z,12.40
2022-12-08T02:19:29.902Z,22.05
2022-12-08T02:22:02.170Z,22.50
2022-12-08T02:24:39.958Z,21.52
2022-12-08T02:27:37.806Z,16.73
2022-12-08T02:30:25.909Z,25.05
2022-12-08T02:33:28.740Z,22.80
2022-12-08T02:36:08.223Z,17.27
2022-12-08T02:38:49.655Z,27.15
2022-12-08T02:41:33.028Z,21.10
2022-12-08T02:44:13.260Z,23.13
2022-12-08T02:46:53.543Z,23.58
2022-12-08T02:49:29.500Z,20.33
2022-12-08T02:52:08.641Z,26.33
2022-12-08T02:54:43.053Z,23.38
2022-12-08T02:57:29.837Z,24.30
2022-12-08T03:00:09.771Z,24.50
2022-12-08T03:02:58.459Z,28.58
2022-12-08T03:05:46.642Z,23.30
2022-12-08T03:08:26.592Z,27.73
2022-12-08T03:11:04.456Z,25.30
2022-12-08T03:13:41.662Z,30.92
2022-12-08T03:16:20.943Z,27.35
2022-12-08T03:19:04.952Z,30.08
2022-12-08T03:21:40.310Z,28.67
2022-12-08T03:24:16.734Z,30.08
2022-12-08T03:26:52.834Z,21.30
2022-12-08T03:29:26.123Z,29.60
2022-12-08T03:32:04.473Z,26.83
2022-12-08T03:34:40.365Z,32.17
2022-12-08T03:37:13.578Z,29.40
2022-12-08T03:39:48.112Z,30.15
2022-12-08T03:42:22.032Z,30.20
2022-12-08T03:44:54.853Z,28.15
2022-12-08T03:47:27.736Z,30.42
2022-12-08T03:50:00.835Z,29.58
2022-12-08T03:52:33.707Z,25.33
2022-12-08T03:55:09.253Z,32.45
2022-12-08T03:57:42.353Z,31.48
2022-12-08T04:00:17.839Z,33.35
2022-12-08T04:02:51.119Z,34.70
2022-12-08T04:05:23.993Z,32.22
2022-12-08T04:07:58.104Z,37.65
2022-12-08T04:10:32.456Z,34.17
2022-12-08T04:13:05.302Z,33.10
2022-12-08T04:15:38.152Z,36.35
2022-12-08T04:18:11.046Z,33.33
2022-12-08T04:20:45.510Z,33.85
2022-12-08T04:23:18.323Z,36.70
2022-12-08T04:25:54.507Z,35.20
2022-12-08T04:28:29.308Z,29.15
2022-12-08T04:31:02.291Z,36.65
2022-12-08T04:33:36.307Z,32.72
2022-12-08T04:36:10.356Z,36.08
2022-12-08T04:38:43.170Z,35.67
2022-12-08T04:41:17.615Z,33.67
2022-12-08T04:43:50.443Z,34.42
2022-12-08T04:46:23.312Z,33.65
2022-12-08T04:48:56.178Z,36.72
2022-12-08T04:51:29.309Z,35.53
2022-12-08T04:54:02.114Z,32.22
2022-12-08T04:56:36.268Z,35.90
2022-12-08T04:59:09.312Z,32.13
2022-12-08T05:01:42.215Z,30.20
2022-12-08T05:04:15.198Z,32.10
2022-12-08T05:06:48.008Z,27.25
2022-12-08T05:09:20.811Z,28.73
2022-12-08T05:11:55.030Z,31.23
2022-12-08T05:14:27.919Z,29.48
2022-12-08T05:17:04.844Z,28.38
2022-12-08T05:19:40.665Z,29.77
2022-12-08T05:22:13.419Z,24.08
2022-12-08T05:24:47.857Z,26.77
2022-12-08T05:27:22.185Z,22.23
2022-12-08T05:29:55.088Z,25.83
2022-12-08T05:32:28.077Z,33.72
2022-12-08T05:35:00.829Z,24.40
2022-12-08T05:37:33.624Z,26.40
2022-12-08T05:40:07.961Z,25.30
2022-12-08T05:42:42.450Z,23.60
2022-12-08T05:45:15.511Z,27.03
2022-12-08T05:47:48.324Z,27.30
2022-12-08T05:50:21.101Z,25.90
2022-12-08T05:52:53.919Z,24.55
2022-12-08T05:55:26.729Z,23.38
2022-12-08T05:58:04.658Z,24.40
2022-12-08T06:00:40.960Z,24.77
2022-12-08T06:03:14.904Z,17.13
2022-12-08T06:05:48.234Z,23.60
2022-12-08T06:08:21.245Z,21.58
2022-12-08T06:10:54.195Z,22.33
2022-12-08T06:13:28.369Z,23.35
2022-12-08T06:16:05.226Z,20.53
2022-12-08T06:18:40.481Z,20.83
2022-12-08T06:21:14.969Z,18.63
2022-12-08T06:23:49.812Z,22.17
2022-12-08T06:28:57.043Z,17.42
2022-12-08T06:31:30.013Z,17.60
2022-12-08T06:34:04.935Z,16.98
2022-12-08T06:36:38.059Z,17.17
2022-12-08T06:39:10.921Z,18.85
2022-12-08T06:41:57.606Z,17.08
2022-12-08T06:44:31.826Z,16.60
2022-12-08T06:47:04.659Z,14.93
2022-12-08T06:49:37.466Z,14.55
2022-12-08T06:52:10.233Z,12.68
2022-12-08T06:54:43.098Z,13.73
2022-12-08T06:57:15.903Z,15.35
2022-12-08T06:59:50.051Z,12.50
2022-12-08T07:02:22.822Z,14.60
2022-12-08T07:04:55.654Z,11.15
2022-12-08T07:07:28.507Z,11.93
2022-12-08T07:10:01.341Z,9.05
2022-12-08T07:12:34.263Z,8.57
2022-12-08T07:15:10.021Z,10.02
2022-12-08T07:17:42.840Z,9.93
2022-12-08T07:20:15.823Z,11.20
2022-12-08T07:22:52.141Z,10.13
2022-12-08T07:25:25.027Z,9.98
2022-12-08T07:27:57.850Z,9.07
2022-12-08T07:30:32.002Z,7.80
2022-12-08T07:33:05.531Z,8.77
2022-12-08T07:35:38.315Z,7.60
2022-12-08T07:38:11.843Z,8.38
2022-12-08T07:40:44.636Z,12.07
2022-12-08T07:43:17.796Z,8.73
2022-12-08T07:45:52.317Z,12.02
2022-12-08T07:48:25.192Z,7.13
2022-12-08T07:51:02.516Z,7.15
2022-12-08T07:53:35.573Z,8.95
2022-12-08T07:56:09.389Z,8.88
2022-12-08T07:58:42.638Z,8.07
2022-12-08T08:01:22.475Z,6.25
2022-12-08T08:03:56.935Z,6.70
2022-12-08T08:06:30.024Z,7.47
2022-12-08T08:09:02.896Z,5.78
2022-12-08T08:11:35.708Z,6.80
2022-12-08T08:14:08.487Z,6.00
2022-12-08T08:16:46.718Z,6.63
2022-12-08T08:19:19.885Z,6.38
2022-12-08T08:21:52.632Z,6.07
2022-12-08T08:24:25.407Z,4.35
2022-12-08T08:26:58.250Z,5.25
2022-12-08T08:29:31.079Z,4.70
2022-12-08T08:32:05.300Z,5.28
2022-12-08T08:34:38.698Z,4.28
2022-12-08T08:37:11.582Z,4.03
2022-12-08T08:39:44.907Z,3.50
2022-12-08T08:42:17.739Z,4.15
2022-12-08T08:44:51.027Z,3.38
2022-12-08T08:47:25.241Z,4.00
2022-12-08T08:49:58.016Z,3.40
2022-12-08T08:52:31.072Z,2.65
2022-12-08T08:55:03.941Z,3.15
2022-12-08T08:57:36.761Z,2.20
2022-12-08T09:00:10.920Z,6.00
2022-12-08T09:02:45.082Z,3.57
2022-12-08T09:05:17.887Z,2.45
2022-12-08T09:07:51.105Z,3.35
2022-12-08T09:10:24.355Z,3.15
2022-12-08T09:12:57.324Z,3.03
2022-12-08T09:15:30.097Z,3.00
2022-12-08T09:18:06.587Z,3.38
2022-12-08T09:20:39.814Z,2.80
2022-12-08T09:23:12.559Z,2.60
2022-12-08T09:25:45.665Z,3.13
2022-12-08T09:28:18.526Z,2.78
2022-12-08T09:30:52.550Z,3.70
2022-12-08T09:33:27.080Z,2.63
2022-12-08T09:36:03.740Z,3.88
2022-12-08T09:38:36.936Z,3.20
2022-12-08T09:41:17.692Z,3.60
2022-12-08T09:44:08.284Z,3.20
2022-12-08T09:46:41.861Z,3.22
2022-12-08T09:49:19.573Z,3.85
2022-12-08T09:51:52.369Z,4.32
2022-12-08T09:54:30.894Z,3.92
2022-12-08T09:57:09.267Z,3.80
2022-12-08T09:59:48.742Z,5.18
2022-12-08T10:02:24.585Z,5.65
2022-12-08T10:05:00.344Z,5.90
2022-12-08T10:07:40.109Z,5.28
2022-12-08T10:10:27.231Z,5.00
2022-12-08T10:13:09.300Z,21.83
2022-12-08T10:15:46.919Z,6.20
2022-12-08T10:18:22.945Z,6.07
2022-12-08T10:21:02.872Z,4.20
2022-12-08T10:23:37.793Z,6.20
2022-12-08T10:28:46.111Z,7.28
2022-12-08T10:31:20.990Z,5.60
2022-12-08T10:33:58.517Z,6.18
2022-12-08T10:36:50.372Z,6.32
2022-12-08T10:39:35.479Z,8.55
2022-12-08T10:42:18.197Z,7.63
2022-12-08T10:44:58.742Z,8.77
2022-12-08T10:47:36.988Z,8.75
2022-12-08T10:50:22.246Z,7.20
2022-12-08T10:55:40.119Z,7.25
2022-12-08T10:58:31.632Z,8.05
2022-12-08T11:01:10.840Z,5.68
2022-12-08T11:03:48.526Z,7.30
2022-12-08T11:06:23.799Z,6.88
2022-12-08T11:09:01.586Z,5.57
2022-12-08T11:11:46.003Z,5.68
2022-12-08T11:14:23.432Z,6.40
2022-12-08T11:17:03.737Z,6.30
2022-12-08T11:19:38.866Z,6.90
2022-12-08T11:22:23.325Z,8.52
2022-12-08T11:25:11.805Z,5.83
2022-12-08T11:27:49.584Z,5.50
2022-12-08T11:30:24.315Z,7.68
2022-12-08T11:33:14.585Z,7.07
2022-12-08T11:35:53.866Z,9.32
2022-12-08T11:38:28.247Z,7.57
2022-12-08T11:41:10.819Z,9.02
2022-12-08T11:43:52.615Z,8.70
2022-12-08T11:46:29.616Z,7.88
2022-12-08T11:49:06.976Z,10.00
2022-12-08T11:51:45.207Z,10.13
2022-12-08T11:54:24.084Z,10.38
2022-12-08T11:57:00.265Z,7.63
2022-12-08T11:59:38.245Z,9.40
2022-12-08T12:02:17.017Z,5.55
2022-12-08T12:04:54.034Z,9.73
2022-12-08T12:07:38.243Z,9.15
2022-12-08T12:10:33.372Z,11.60
2022-12-08T12:13:42.592Z,8.50
2022-12-08T12:16:32.853Z,8.48
2022-12-08T12:19:11.898Z,10.70
2022-12-08T12:21:47.847Z,9.32
2022-12-08T12:24:26.784Z,8.88
2022-12-08T12:27:06.557Z,9.43
2022-12-08T12:29:52.212Z,9.35
2022-12-08T12:32:43.980Z,7.43
2022-12-08T12:35:27.004Z,6.82
2022-12-08T12:38:03.957Z,7.32
2022-12-08T12:40:44.387Z,6.97
2022-12-08T12:43:29.248Z,6.03
2022-12-08T12:46:35.591Z,7.25
2022-12-08T12:52:01.108Z,9.35
2022-12-08T12:54:33.967Z,7.43
2022-12-08T12:57:22.401Z,5.85
2022-12-08T13:00:08.992Z,6.45
2022-12-08T13:02:48.767Z,7.82
2022-12-08T13:05:25.924Z,6.20
2022-12-08T13:08:03.099Z,6.70
2022-12-08T13:10:39.074Z,7.47
2022-12-08T13:13:19.444Z,8.48
2022-12-08T13:15:54.885Z,9.77
2022-12-08T13:18:30.666Z,7.45
2022-12-08T13:21:14.857Z,9.40
2022-12-08T13:23:51.666Z,8.07
2022-12-08T13:26:26.065Z,7.75
2022-12-08T13:29:23.764Z,7.15
2022-12-08T13:31:57.060Z,7.93
2022-12-08T13:34:37.950Z,7.90
2022-12-08T13:37:25.560Z,5.78
2022-12-08T13:40:04.889Z,7.28
2022-12-08T13:42:45.228Z,7.80
2022-12-08T13:45:43.581Z,9.20
2022-12-08T13:48:35.239Z,7.75
2022-12-08T13:57:25.647Z,9.65
2022-12-08T14:00:01.651Z,8.98
2022-12-08T14:02:42.231Z,9.43
2022-12-08T14:05:40.667Z,8.88
2022-12-08T14:08:51.005Z,11.15
2022-12-08T14:11:34.396Z,10.45
2022-12-08T14:14:14.423Z,10.00
2022-12-08T14:16:56.322Z,11.52
2022-12-08T14:19:31.180Z,11.20
2022-12-08T14:22:11.380Z,12.57
2022-12-08T14:24:46.768Z,9.73
2022-12-08T14:27:23.638Z,8.43
2022-12-08T14:30:01.015Z,10.18
2022-12-08T14:32:36.045Z,13.15
2022-12-08T14:35:23.053Z,15.85
2022-12-08T14:37:58.471Z,7.03
2022-12-08T14:40:34.660Z,5.40
2022-12-08T14:43:17.541Z,9.35
2022-12-08T14:45:55.245Z,6.28
2022-12-08T14:48:40.709Z,8.13
2022-12-08T14:53:58.349Z,7.88
2022-12-08T14:56:37.682Z,7.32
2022-12-08T14:59:15.829Z,8.20
2022-12-08T15:01:53.659Z,5.65
2022-12-08T15:04:29.465Z,7.18
2022-12-08T15:07:07.706Z,5.75
2022-12-08T15:09:42.163Z,8.23
2022-12-08T15:12:26.773Z,7.95
2022-12-08T15:15:03.008Z,8.70
2022-12-08T15:17:44.226Z,9.15
2022-12-08T15:20:34.782Z,9.60
2022-12-08T15:23:29.194Z,9.40
2022-12-08T15:26:02.020Z,10.93
2022-12-08T15:28:34.877Z,10.35
2022-12-08T15:31:07.793Z,10.32
2022-12-08T15:33:41.994Z,8.45
2022-12-08T15:36:14.816Z,6.97
2022-12-08T15:38:47.629Z,9.35
2022-12-08T15:41:20.398Z,10.20
2022-12-08T15:43:53.528Z,9.88
2022-12-08T15:46:26.389Z,11.40
2022-12-08T15:49:00.597Z,10.57
2022-12-08T15:51:36.392Z,11.95
2022-12-08T15:54:09.380Z,11.73
2022-12-08T15:57:17.258Z,10.98
2022-12-08T15:59:38.877Z,12.65
2022-12-08T16:02:17.909Z,11.90
2022-12-08T16:07:52.886Z,15.93
2022-12-08T16:10:45.485Z,12.55
2022-12-08T16:13:56.598Z,14.40
2022-12-08T16:16:31.282Z,15.35
2022-12-08T16:19:04.489Z,10.60
2022-12-08T16:22:23.805Z,12.85
2022-12-08T16:24:31.421Z,11.98
2022-12-08T16:29:59.407Z,13.88
2022-12-08T16:35:05.684Z,13.80
2022-12-08T16:37:40.760Z,16.80
2022-12-08T16:40:14.198Z,14.13
2022-12-08T16:42:48.334Z,16.58
2022-12-08T16:45:23.548Z,15.53
2022-12-08T16:47:58.313Z,15.00
2022-12-08T16:50:33.370Z,16.52
2022-12-08T16:53:09.073Z,18.75
2022-12-08T16:55:47.084Z,15.65
2022-12-08T16:58:21.258Z,16.95
2022-12-08T17:00:54.174Z,13.47
2022-12-08T17:03:27.097Z,16.10
2022-12-08T17:05:59.955Z,16.48
2022-12-08T17:08:34.465Z,17.00
2022-12-08T17:11:08.450Z,18.67
2022-12-08T17:13:43.065Z,17.65
2022-12-08T17:16:19.072Z,19.30
2022-12-08T17:18:53.411Z,19.77
2022-12-08T17:21:26.213Z,15.52
2022-12-08T17:24:00.406Z,18.85
2022-12-08T17:26:33.452Z,20.45
2022-12-08T17:29:06.256Z,22.30
2022-12-08T17:31:39.141Z,19.98
2022-12-08T17:34:12.460Z,21.08
2022-12-08T17:36:45.236Z,24.55
2022-12-08T17:39:19.887Z,26.30
2022-12-08T17:41:52.859Z,22.42
2022-12-08T17:44:25.692Z,25.38
2022-12-08T17:46:58.507Z,24.75
2022-12-08T17:49:32.801Z,24.75
2022-12-08T17:52:07.744Z,25.58
2022-12-08T17:57:14.602Z,23.42
2022-12-08T17:59:47.652Z,22.05
2022-12-08T18:02:20.856Z,26.02
2022-12-08T18:04:53.662Z,27.20
2022-12-08T18:07:26.585Z,27.13
2022-12-08T18:10:00.724Z,24.40
2022-12-08T18:12:33.571Z,22.83
2022-12-08T18:15:08.414Z,23.55
2022-12-08T18:17:41.283Z,23.38
2022-12-08T18:20:15.337Z,24.70
2022-12-08T18:22:48.480Z,27.77
2022-12-08T18:25:22.789Z,27.95
2022-12-08T18:27:55.625Z,28.38
2022-12-08T18:30:28.605Z,25.42
2022-12-08T18:33:04.564Z,29.25
2022-12-08T18:35:39.728Z,24.08
2022-12-08T18:38:12.793Z,24.52
2022-12-08T18:40:46.954Z,24.90
2022-12-08T18:43:19.906Z,29.83
2022-12-08T18:46:02.429Z,24.15
2022-12-08T18:48:35.280Z,25.92
2022-12-08T18:51:10.534Z,27.35
2022-12-08T18:53:44.628Z,26.15
2022-12-08T18:56:25.113Z,28.33
2022-12-08T18:59:03.345Z,24.95
2022-12-08T19:01:39.510Z,23.27
2022-12-08T19:04:27.755Z,24.95
2022-12-08T19:07:01.266Z,26.45
2022-12-08T19:09:34.353Z,29.80
2022-12-08T19:12:08.809Z,24.08
2022-12-08T19:14:42.446Z,31.60
2022-12-08T19:17:15.230Z,24.33
2022-12-08T19:19:48.173Z,26.23
2022-12-08T19:22:20.978Z,29.83
2022-12-08T19:24:55.874Z,28.38
2022-12-08T19:27:29.999Z,24.55
2022-12-08T19:30:02.904Z,31.30
2022-12-08T19:32:36.067Z,28.75
2022-12-08T19:35:09.437Z,24.55
2022-12-08T19:37:42.319Z,27.63
2022-12-08T19:40:35.631Z,27.10
2022-12-08T19:43:34.150Z,27.67
2022-12-08T19:46:07.418Z,27.17
2022-12-08T19:48:40.736Z,26.75
2022-12-08T19:51:13.719Z,25.30
2022-12-08T19:53:47.935Z,26.40
2022-12-08T19:56:20.958Z,21.55
2022-12-08T19:58:55.374Z,28.13
2022-12-08T20:01:28.549Z,24.50
2022-12-08T20:04:01.398Z,28.75
2022-12-08T20:06:36.609Z,26.08
2022-12-08T20:09:10.252Z,31.65
2022-12-08T20:11:43.314Z,31.00
2022-12-08T20:14:18.120Z,46.65
2022-12-08T20:16:51.174Z,92.78
2022-12-08T20:19:24.078Z,52.08
2022-12-08T20:21:57.516Z,31.73
2022-12-08T20:24:31.395Z,31.48
2022-12-08T20:27:04.448Z,29.17
2022-12-08T20:29:38.735Z,33.50
2022-12-08T20:32:11.788Z,24.50
2022-12-08T20:34:44.675Z,28.88
2022-12-08T20:37:17.494Z,25.67
2022-12-08T20:39:52.241Z,24.95
2022-12-08T20:42:25.077Z,22.13
2022-12-08T20:45:00.187Z,24.30
2022-12-08T20:47:33.031Z,24.00
2022-12-08T20:50:08.819Z,25.85
2022-12-08T20:52:42.131Z,29.05
2022-12-08T20:55:14.910Z,24.13
2022-12-08T20:57:48.015Z,25.92
2022-12-08T21:00:25.811Z,25.35
2022-12-08T21:02:58.712Z,21.67
2022-12-08T21:05:32.017Z,25.75
2022-12-08T21:08:05.183Z,21.05
2022-12-08T21:10:43.681Z,25.67
2022-12-08T21:13:17.031Z,28.95
2022-12-08T21:15:51.441Z,25.80
2022-12-08T21:18:25.127Z,24.83
2022-12-08T21:21:03.251Z,21.80
2022-12-08T21:23:36.297Z,24.75
2022-12-08T21:26:13.126Z,25.80
2022-12-08T21:28:46.324Z,16.08
2022-12-08T21:31:21.593Z,29.23
2022-12-08T21:33:55.120Z,26.02
2022-12-08T21:36:28.121Z,32.92
2022-12-08T21:39:02.784Z,30.95
2022-12-08T21:41:53.230Z,34.13
2022-12-08T21:44:26.163Z,34.70
2022-12-08T21:47:00.486Z,29.55
2022-12-08T21:49:34.010Z,30.17
2022-12-08T21:52:06.983Z,30.58
2022-12-08T21:54:39.921Z,34.40
2022-12-08T21:57:14.070Z,31.50
2022-12-08T21:59:46.883Z,31.53
2022-12-08T22:02:22.822Z,26.63
2022-12-08T22:04:56.154Z,30.05
2022-12-08T22:07:29.314Z,27.55
2022-12-08T22:10:02.391Z,30.67
2022-12-08T22:12:36.814Z,27.05
2022-12-08T22:15:11.567Z,27.10
2022-12-08T22:17:45.772Z,30.05
2022-12-08T22:20:19.102Z,29.50
2022-12-08T22:22:52.032Z,28.52
2022-12-08T22:25:24.909Z,30.67
2022-12-08T22:27:58.223Z,28.35
2022-12-08T22:30:35.594Z,31.17
2022-12-08T22:33:12.922Z,31.50
2022-12-08T22:35:45.952Z,31.38
2022-12-08T22:38:18.700Z,28.27
2022-12-08T22:40:51.912Z,28.02
2022-12-08T22:43:24.801Z,33.67
2022-12-08T22:45:57.966Z,34.65
2022-12-08T22:48:32.348Z,30.58
2022-12-08T22:51:05.254Z,35.05
2022-12-08T22:53:38.689Z,31.85
2022-12-08T22:56:13.345Z,26.13
2022-12-08T22:58:46.575Z,28.65
2022-12-08T23:01:24.876Z,32.55
2022-12-08T23:04:00.396Z,35.00
2022-12-08T23:06:33.467Z,33.92
2022-12-08T23:09:07.717Z,35.08
2022-12-08T23:11:40.679Z,29.23
2022-12-08T23:14:13.570Z,32.38
2022-12-08T23:16:46.824Z,37.78
2022-12-08T23:19:21.493Z,31.88
2022-12-08T23:21:54.529Z,36.90
2022-12-08T23:24:27.665Z,26.15
2022-12-08T23:27:01.683Z,34.73
2022-12-08T23:29:34.742Z,30.48
2022-12-08T23:32:07.940Z,30.75
2022-12-08T23:34:42.289Z,32.05
2022-12-08T23:37:15.411Z,30.75
2022-12-08T23:39:48.476Z,33.78
2022-12-08T23:42:21.706Z,35.40
2022-12-08T23:44:54.737Z,31.45
2022-12-08T23:47:27.614Z,31.65
2022-12-08T23:50:02.099Z,33.72
2022-12-08T23:52:35.196Z,29.17
2022-12-08T23:55:09.100Z,35.42
2022-12-08T23:57:41.968Z,32.75
